• Join FlightAware (Why Join?)
  • Login
  • US Flag 
Rudolph Flight #1: Arrived! 
06:20AM EST


 

Airport Tracker/Info


-or-


 

Live Flight TrackerFlight Track Log ✈ CDG4824 ✈ 19-Aug-2014 ✈ ZUGY / KWE - ZSAM / XMN

Flight Track Log - Related Links

Times and Time Zones

All times are in EDT time to prevent confusion due to time zone crossing. See the CDG4824 flight status page for this flight to view local times or setup timezone preferences in your user account.

Time Position Orientation Groundspeed Altitude Reporting Facility
EDT Latitude Longitude Course Direction KTS MPH feet Rate Location/Type
09:08AM 26.3627 108.0632 99° East  Level Estimated
09:09AM 26.3445 108.1892 99° East  Level Estimated
09:10AM 26.3263 108.3152 99° East  Level Estimated
09:11AM 26.3078 108.4412 99° East  Level Estimated
09:12AM 26.2893 108.5671 99° East  Level Estimated
09:13AM 26.2707 108.6929 99° East  Level Estimated
09:14AM 26.2520 108.8188 99° East  Level Estimated
09:15AM 26.2331 108.9446 99° East  Level Estimated
09:16AM 26.2142 109.0703 100° East  Level Estimated
09:17AM 26.1951 109.1960 100° East  Level Estimated
09:18AM 26.1759 109.3217 100° East  Level Estimated
09:19AM 26.1566 109.4473 100° East  Level Estimated
09:20AM 26.1372 109.5729 100° East  Level Estimated
09:21AM 26.1177 109.6985 100° East  Level Estimated
09:22AM 26.0981 109.8240 100° East  Level Estimated
09:23AM 26.0784 109.9494 100° East  Level Estimated
09:24AM 26.0586 110.0749 100° East  Level Estimated
09:25AM 26.0386 110.2002 100° East  Level Estimated
09:26AM 26.0186 110.3256 100° East  Level Estimated
09:27AM 25.9984 110.4509 100° East  Level Estimated
09:28AM 25.9782 110.5761 100° East  Level Estimated
09:29AM 25.9578 110.7013 100° East  Level Estimated
09:30AM 25.9373 110.8265 100° East  Level Estimated
09:31AM 25.9168 110.9516 100° East  Level Estimated
09:32AM 25.8961 111.0766 100° East  Level Estimated
09:33AM 25.8753 111.2017 100° East  Level Estimated
09:34AM 25.8544 111.3267 101° East  Level Estimated
09:35AM 25.8334 111.4516 101° East  Level Estimated
09:36AM 25.8122 111.5765 101° East  Level Estimated
09:37AM 25.7910 111.7013 101° East  Level Estimated
09:38AM 25.7697 111.8261 101° East  Level Estimated
09:39AM 25.7482 111.9509 101° East  Level Estimated
09:40AM 25.7267 112.0756 101° East  Level Estimated
09:41AM 25.7050 112.2003 101° East  Level Estimated
09:42AM 25.6833 112.3249 101° East  Level Estimated
09:43AM 25.6614 112.4495 101° East  Level Estimated
09:44AM 25.6395 112.5740 101° East  Level Estimated
09:45AM 25.6174 112.6985 101° East  Level Estimated
09:46AM 25.5952 112.8230 101° East  Level Estimated
09:47AM 25.5729 112.9474 101° East  Level Estimated
09:48AM 25.5505 113.0717 101° East  Level Estimated
09:49AM 25.5280 113.1960 101° East  Level Estimated
09:50AM 25.5054 113.3203 101° East  Level Estimated
09:51AM 25.4827 113.4445 101° East  Level Estimated
09:52AM 25.4599 113.5686 101° East  Level Estimated
09:53AM 25.4370 113.6927 102° East  Level Estimated
09:54AM 25.4140 113.8168 102° East  Level Estimated
09:55AM 25.3909 113.9408 102° East  Level Estimated
09:56AM 25.3676 114.0648 102° East  Level Estimated
09:57AM 25.3443 114.1887 102° East  Level Estimated
09:58AM 25.3209 114.3126 102° East  Level Estimated
09:59AM 25.2974 114.4364 102° East  Level Estimated
10:00AM 25.2737 114.5602 102° East  Level Estimated
10:01AM 25.2500 114.6840 102° East  Level Estimated
10:02AM 25.2261 114.8076 102° East  Level Estimated
10:03AM 25.2022 114.9313 102° East  Level Estimated
10:04AM 25.1781 115.0549 102° East  Level Estimated
10:05AM 25.1540 115.1784 102° East  Level Estimated
10:06AM 25.1297 115.3019 102° East  Level Estimated
10:07AM 25.1054 115.4253 102° East  Level Estimated
10:08AM 25.0809 115.5487 102° East  Level Estimated
10:09AM 25.0563 115.6721 102° East  Level Estimated
10:10AM 25.0317 115.7953 102° East  Level Estimated
10:11AM 25.0069 115.9186 102° East  Level Estimated
10:12AM 24.9820 116.0418 103° East  Level Estimated
10:13AM 24.9571 116.1649 103° East  Level Estimated
10:14AM 24.9320 116.2880 103° East  Level Estimated
10:15AM 24.9068 116.4111 103° East  Level Estimated
10:16AM 24.8816 116.5340 103° East  Level Estimated
10:17AM 24.8562 116.6570 103° East  Level Estimated
10:18AM 24.8307 116.7799 103° East  Level Estimated
10:19AM 24.8051 116.9027 103° East  Level Estimated
10:20AM 24.7795 117.0255 103° East  Level Estimated
10:21AM 24.7537 117.1482 103° East  Level Estimated
10:22AM 24.7278 117.2709 103° East  Level Estimated
10:23AM 24.7018 117.3936 103° East  Level Estimated
10:24AM 24.6758 117.5162 103° East  Level Estimated
10:25AM 24.6496 117.6387 103° East  Level Estimated
10:26AM 24.6233 117.7612 103° East  Level Estimated
10:27AM 24.5970 117.8836 103° East  Level Estimated
10:28AM 24.5705 118.0060 103° East  Level Estimated
10:29AM 24.5440 118.1277 103° East  Level Estimated
10:30AM 24.5440 118.1277 North  Level Estimated
10:31AM 24.5440 118.1277 North  Level Estimated
10:32AM 24.5440 118.1277 North  Level Estimated
10:33AM 24.5440 118.1277 North  Level Estimated
10:34AM 24.5440 118.1277 North  Level Estimated
10:35AM 24.5440 118.1277 North  Level Estimated
10:36AM 24.5440 118.1277 North  Level Estimated
10:37AM 24.5440 118.1277 North  Level Estimated
10:38AM 24.5440 118.1277 North  Level Estimated
10:39AM 24.5440 118.1277 North  Level Estimated
10:40AM 24.5440 118.1277 North  Level Estimated
10:41AM 24.5440 118.1277 North  Level Estimated
10:42AM 24.5440 118.1277 North  Level Estimated
10:43AM 24.5440 118.1277 North  Level Estimated
10:44AM 24.5440 118.1277 North  Level Estimated
10:45AM 24.5440 118.1277 North  Level Estimated